^^
Station Historical Data
Daily Summary for March 9, 2021 Units:  English    Metric   Both
Daily Weekly Monthly Yearly
  High: Low: Average:
Temperature: 47.8 °F 29.6 °F 37.4 °F
Dew Point: 38.1 °F 27.3 °F 32.9 °F
Humidity: 92% 68% 84%
Wind Speed: 8mph 0mph 2mph
Wind Gust: 9mph - -
Wind- - SE
Pressure: 30.40 in 30.18 in -
Precipitation: 0.00 in    
 
 
Tabular Data for March 9, 2021
Time Temperature Dew Point Pressure Wind Wind Speed Wind Gust Humidity Rainfall Rate (Hourly) solar
00:00 34.4 °F 31.2 °F 30.27 in Calm     88% 0.00 in 0 W/m2
00:05 34.6 °F 31.4 °F 30.27 in Calm     88% 0.00 in 0 W/m2
00:10 34.7 °F 31.2 °F 30.27 in Calm     87% 0.00 in 0 W/m2
00:15 34.2 °F 30.7 °F 30.27 in Calm     87% 0.00 in 0 W/m2
00:20 34 °F 30.8 °F 30.28 in Calm     88% 0.00 in 0 W/m2
00:25 34 °F 30.8 °F 30.28 in Calm     88% 0.00 in 0 W/m2
00:30 33.1 °F 29.9 °F 30.28 in Calm     88% 0.00 in 0 W/m2
00:35 33.3 °F 30.4 °F 30.28 in Calm     89% 0.00 in 0 W/m2
00:40 33.1 °F 30.2 °F 30.28 in Calm     89% 0.00 in 0 W/m2
00:45 33.5 °F 30.9 °F 30.28 in Calm     90% 0.00 in 0 W/m2
00:50 34 °F 31.1 °F 30.28 in Calm     89% 0.00 in 0 W/m2
00:55 33.5 °F 30.6 °F 30.28 in Calm     89% 0.00 in 0 W/m2
01:00 34.2 °F 31.3 °F 30.28 in Calm     89% 0.00 in 0 W/m2
01:05 33.9 °F 31 °F 30.28 in Calm     89% 0.00 in 0 W/m2
01:10 34.6 °F 31.7 °F 30.28 in Calm     89% 0.00 in 0 W/m2
01:15 34.1 °F 30.9 °F 30.28 in Calm     88% 0.00 in 0 W/m2
01:20 34.2 °F 31.3 °F 30.29 in Calm     89% 0.00 in 0 W/m2
01:25 34.4 °F 31.5 °F 30.29 in Calm     89% 0.00 in 0 W/m2
01:30 34 °F 30.8 °F 30.29 in Calm     88% 0.00 in 0 W/m2
01:35 33.4 °F 30.2 °F 30.29 in Calm     88% 0.00 in 0 W/m2
01:40 32.5 °F 29.3 °F 30.30 in Calm     88% 0.00 in 0 W/m2
01:45 32.3 °F 29.4 °F 30.30 in Calm     89% 0.00 in 0 W/m2
01:50 32.2 °F 29.3 °F 30.30 in Calm     89% 0.00 in 0 W/m2
01:55 31.8 °F 29.2 °F 30.30 in Calm     90% 0.00 in 0 W/m2
02:00 31.6 °F 29 °F 30.31 in Calm     90% 0.00 in 0 W/m2
02:05 31.8 °F 29.2 °F 30.31 in Calm     90% 0.00 in 0 W/m2
02:10 31.5 °F 28.9 °F 30.31 in Calm     90% 0.00 in 0 W/m2
02:15 31.6 °F 29.3 °F 30.31 in Calm     91% 0.00 in 0 W/m2
02:20 32.2 °F 29.9 °F 30.31 in Calm     91% 0.00 in 0 W/m2
02:25 31.8 °F 29.2 °F 30.31 in Calm     90% 0.00 in 0 W/m2
02:30 31.6 °F 29.3 °F 30.31 in Calm     91% 0.00 in 0 W/m2
02:35 31.8 °F 29.5 °F 30.31 in Calm     91% 0.00 in 0 W/m2
02:40 31.8 °F 29.5 °F 30.31 in Calm     91% 0.00 in 0 W/m2
02:45 31.9 °F 29.6 °F 30.31 in Calm     91% 0.00 in 0 W/m2
02:50 31.4 °F 28.8 °F 30.31 in Calm     90% 0.00 in 0 W/m2
02:55 31.3 °F 29 °F 30.32 in Calm     91% 0.00 in 0 W/m2
03:00 31.5 °F 29.2 °F 30.32 in Calm     91% 0.00 in 0 W/m2
03:05 31.7 °F 29.4 °F 30.32 in Calm     91% 0.00 in 0 W/m2
03:10 32.2 °F 30.1 °F 30.32 in Calm     92% 0.00 in 0 W/m2
03:15 32 °F 29.7 °F 30.32 in Calm     91% 0.00 in 0 W/m2
03:20 31.8 °F 29.5 °F 30.31 in Calm     91% 0.00 in 0 W/m2
03:25 32.1 °F 30 °F 30.32 in Calm     92% 0.00 in 0 W/m2
03:30 32.2 °F 30.1 °F 30.32 in Calm     92% 0.00 in 0 W/m2
03:35 31.9 °F 29.6 °F 30.32 in Calm     91% 0.00 in 0 W/m2
03:40 31.3 °F 29 °F 30.32 in Calm     91% 0.00 in 0 W/m2
03:45 31.3 °F 29 °F 30.32 in Calm     91% 0.00 in 0 W/m2
03:50 31.3 °F 29 °F 30.32 in Calm     91% 0.00 in 0 W/m2
03:55 31.2 °F 29.1 °F 30.32 in Calm     92% 0.00 in 0 W/m2
04:00 31.5 °F 29.4 °F 30.32 in Calm     92% 0.00 in 0 W/m2
04:05 32 °F 29.9 °F 30.33 in Calm     92% 0.00 in 0 W/m2
04:10 31.2 °F 28.9 °F 30.33 in Calm     91% 0.00 in 0 W/m2
04:15 30.6 °F 28.3 °F 30.33 in Calm     91% 0.00 in 0 W/m2
04:20 30.3 °F 28.3 °F 30.33 in Calm     92% 0.00 in 0 W/m2
04:25 30.4 °F 28.4 °F 30.34 in Calm     92% 0.00 in 0 W/m2
04:30 30.4 °F 28.4 °F 30.34 in Calm   1 mph 92% 0.00 in 0 W/m2
04:35 30.6 °F 28.6 °F 30.34 in North 1 mph 1 mph 92% 0.00 in 0 W/m2
04:40 30.7 °F 28.7 °F 30.34 in Calm     92% 0.00 in 0 W/m2
04:45 30.9 °F 28.9 °F 30.35 in Calm     92% 0.00 in 0 W/m2
04:50 30.8 °F 28.8 °F 30.35 in Calm     92% 0.00 in 0 W/m2
04:55 30.7 °F 28.7 °F 30.35 in Calm     92% 0.00 in 0 W/m2
05:00 30.7 °F 28.7 °F 30.35 in Calm     92% 0.00 in 0 W/m2
05:05 30.8 °F 28.8 °F 30.35 in Calm   1 mph 92% 0.00 in 0 W/m2
05:10 31 °F 28.9 °F 30.35 in Calm     92% 0.00 in 0 W/m2
05:15 31 °F 28.9 °F 30.36 in Calm     92% 0.00 in 0 W/m2
05:20 31.1 °F 29 °F 30.36 in Calm   1 mph 92% 0.00 in 0 W/m2
05:25 31 °F 28.9 °F 30.36 in Calm   1 mph 92% 0.00 in 0 W/m2
05:30 31 °F 28.9 °F 30.36 in Calm     92% 0.00 in 0 W/m2
05:35 30.9 °F 28.9 °F 30.36 in Calm     92% 0.00 in 0 W/m2
05:40 30.9 °F 28.9 °F 30.37 in Calm     92% 0.00 in 0 W/m2
05:45 30.8 °F 28.5 °F 30.37 in Calm     91% 0.00 in 0 W/m2
05:50 30.6 °F 28.3 °F 30.36 in Calm     91% 0.00 in 0 W/m2
05:55 30.7 °F 28.7 °F 30.36 in Calm     92% 0.00 in 0 W/m2
06:00 30.7 °F 28.4 °F 30.36 in Calm     91% 0.00 in 0 W/m2
06:05 30.5 °F 28.2 °F 30.36 in Calm     91% 0.00 in 0 W/m2
06:10 30.5 °F 28.5 °F 30.36 in Calm     92% 0.00 in 0 W/m2
06:15 30.4 °F 28.4 °F 30.36 in Calm     92% 0.00 in 0 W/m2
06:20 30.3 °F 28 °F 30.36 in Calm     91% 0.00 in 0 W/m2
06:25 30.3 °F 28.3 °F 30.36 in Calm   1 mph 92% 0.00 in 0 W/m2
06:30 30.3 °F 28.3 °F 30.36 in Calm     92% 0.00 in 0 W/m2
06:35 30.3 °F 28 °F 30.36 in Calm     91% 0.00 in 0 W/m2
06:40 30.1 °F 27.8 °F 30.37 in Calm   1 mph 91% 0.00 in 0 W/m2
06:45 30 °F 27.7 °F 30.37 in Calm   1 mph 91% 0.00 in 0 W/m2
06:50 30 °F 28 °F 30.37 in Calm     92% 0.00 in 0 W/m2
06:55 29.9 °F 27.9 °F 30.37 in Calm     92% 0.00 in 7 W/m2
07:00 29.8 °F 27.8 °F 30.37 in Calm     92% 0.00 in 11 W/m2
07:05 29.6 °F 27.3 °F 30.37 in Calm     91% 0.00 in 14 W/m2
07:10 29.7 °F 27.7 °F 30.37 in Calm     92% 0.00 in 23 W/m2
07:15 29.9 °F 27.9 °F 30.37 in Calm     92% 0.00 in 28 W/m2
07:20 30.1 °F 28.1 °F 30.37 in Calm     92% 0.00 in 39 W/m2
07:25 30.3 °F 28.3 °F 30.37 in Calm     92% 0.00 in 46 W/m2
07:30 30.1 °F 28.1 °F 30.37 in Calm     92% 0.00 in 47 W/m2
07:35 30.1 °F 28.1 °F 30.38 in Calm   1 mph 92% 0.00 in 46 W/m2
07:40 30.1 °F 28.1 °F 30.37 in Calm     92% 0.00 in 49 W/m2
07:45 30.1 °F 28.1 °F 30.38 in Calm     92% 0.00 in 58 W/m2
07:50 30 °F 27.7 °F 30.38 in Calm     91% 0.00 in 51 W/m2
07:55 30.1 °F 28.1 °F 30.38 in Calm     92% 0.00 in 53 W/m2
08:00 29.9 °F 27.6 °F 30.38 in Calm     91% 0.00 in 56 W/m2
08:05 30 °F 27.7 °F 30.38 in Calm     91% 0.00 in 58 W/m2
08:10 30.3 °F 28.3 °F 30.38 in Calm     92% 0.00 in 83 W/m2
08:15 30.8 °F 28.8 °F 30.38 in Calm     92% 0.00 in 116 W/m2
08:20 32 °F 29.9 °F 30.38 in Calm     92% 0.00 in 135 W/m2
08:25 32.4 °F 30.3 °F 30.39 in Calm     92% 0.00 in 142 W/m2
08:30 32.4 °F 30.3 °F 30.38 in Calm     92% 0.00 in 128 W/m2
08:35 32.2 °F 30.1 °F 30.38 in Calm   1 mph 92% 0.00 in 192 W/m2
08:40 33.5 °F 31.4 °F 30.39 in Calm     92% 0.00 in 209 W/m2
08:45 34.3 °F 32.2 °F 30.39 in Calm     92% 0.00 in 181 W/m2
08:50 34.6 °F 32.2 °F 30.39 in Calm     91% 0.00 in 181 W/m2
08:55 34.4 °F 32 °F 30.38 in Calm     91% 0.00 in 113 W/m2
09:00 34.2 °F 31.6 °F 30.39 in Calm   1 mph 90% 0.00 in 176 W/m2
09:05 34.4 °F 32 °F 30.38 in Calm   1 mph 91% 0.00 in 250 W/m2
09:10 35 °F 32.4 °F 30.39 in Calm   1 mph 90% 0.00 in 318 W/m2
09:15 35 °F 32.4 °F 30.39 in Calm   1 mph 90% 0.00 in 200 W/m2
09:20 35.6 °F 33 °F 30.39 in Calm   1 mph 90% 0.00 in 197 W/m2
09:25 37.2 °F 34 °F 30.39 in Calm   1 mph 88% 0.00 in 216 W/m2
09:30 37.5 °F 33.7 °F 30.39 in North 1 mph 1 mph 86% 0.00 in 225 W/m2
09:35 37.6 °F 33.8 °F 30.39 in North 1 mph 1 mph 86% 0.00 in 267 W/m2
09:40 37.9 °F 33.8 °F 30.39 in North 1 mph 1 mph 85% 0.00 in 258 W/m2
09:45 38.5 °F 34.1 °F 30.39 in North 1 mph 1 mph 84% 0.00 in 339 W/m2
09:50 39.8 °F 35.1 °F 30.39 in NNE 1 mph 3 mph 83% 0.00 in 225 W/m2
09:55 40.4 °F 35.3 °F 30.40 in NNE 1 mph 3 mph 82% 0.00 in 272 W/m2
10:00 40.3 °F 34.9 °F 30.40 in NNE 1 mph 1 mph 81% 0.00 in 339 W/m2
10:05 40 °F 34.9 °F 30.39 in NNE 1 mph 1 mph 82% 0.00 in 371 W/m2
10:10 40.7 °F 35.3 °F 30.39 in NNE 1 mph 2 mph 81% 0.00 in 396 W/m2
10:15 41.6 °F 35.6 °F 30.39 in NNE 1 mph 2 mph 79% 0.00 in 475 W/m2
10:20 41.9 °F 35.5 °F 30.39 in ENE 2 mph 2 mph 78% 0.00 in 508 W/m2
10:25 42.3 °F 35.6 °F 30.39 in East 2 mph 2 mph 77% 0.00 in 524 W/m2
10:30 42 °F 35 °F 30.39 in ESE 2 mph 2 mph 76% 0.00 in 541 W/m2
10:35 41.4 °F 35.1 °F 30.39 in ESE 2 mph 2 mph 78% 0.00 in 543 W/m2
10:40 41.1 °F 34.8 °F 30.39 in SE 2 mph 2 mph 78% 0.00 in 564 W/m2
10:45 41.3 °F 35.3 °F 30.39 in SE 2 mph 2 mph 79% 0.00 in 548 W/m2
10:50 41.3 °F 35.3 °F 30.39 in ESE 2 mph 2 mph 79% 0.00 in 552 W/m2
10:55 42.3 °F 35.9 °F 30.40 in SE 2 mph 2 mph 78% 0.00 in 531 W/m2
11:00 42.4 °F 35.7 °F 30.39 in SE 2 mph 2 mph 77% 0.00 in 536 W/m2
11:05 42 °F 35.3 °F 30.39 in SE 2 mph 2 mph 77% 0.00 in 380 W/m2
11:10 41.4 °F 35.1 °F 30.39 in SE 2 mph 2 mph 78% 0.00 in 469 W/m2
11:15 40.9 °F 34.9 °F 30.40 in SE 2 mph 2 mph 79% 0.00 in 540 W/m2
11:20 40.8 °F 34.8 °F 30.40 in SE 1 mph 1 mph 79% 0.00 in 552 W/m2
11:25 41.1 °F 34.8 °F 30.40 in SE 1 mph 1 mph 78% 0.00 in 580 W/m2
11:30 42 °F 35.6 °F 30.39 in ESE 1 mph 1 mph 78% 0.00 in 577 W/m2
11:35 42.7 °F 35.7 °F 30.39 in ESE 1 mph 1 mph 76% 0.00 in 631 W/m2
11:40 43.1 °F 35.7 °F 30.39 in North 1 mph 1 mph 75% 0.00 in 654 W/m2
11:45 42.2 °F 34.8 °F 30.39 in North 1 mph 1 mph 75% 0.00 in 643 W/m2
11:50 42.3 °F 35.3 °F 30.38 in North 1 mph 1 mph 76% 0.00 in 492 W/m2
11:55 42.4 °F 35.4 °F 30.38 in NNE 1 mph 1 mph 76% 0.00 in 621 W/m2
12:00 41.8 °F 34.8 °F 30.38 in NNE 1 mph 1 mph 76% 0.00 in 578 W/m2
12:05 42.3 °F 35.3 °F 30.38 in NNE 1 mph 1 mph 76% 0.00 in 515 W/m2
12:10 42.8 °F 35.4 °F 30.39 in North 1 mph 2 mph 75% 0.00 in 636 W/m2
12:15 43.5 °F 35.8 °F 30.39 in NNE 2 mph 2 mph 74% 0.00 in 701 W/m2
12:20 43.5 °F 35.8 °F 30.39 in North 2 mph 2 mph 74% 0.00 in 691 W/m2
12:25 43.5 °F 35.8 °F 30.38 in North 1 mph 2 mph 74% 0.00 in 636 W/m2
12:30 42.9 °F 35.2 °F 30.38 in ENE 1 mph 2 mph 74% 0.00 in 696 W/m2
12:35 42.8 °F 35.4 °F 30.38 in North 2 mph 2 mph 75% 0.00 in 671 W/m2
12:40 43.1 °F 35.7 °F 30.38 in North 2 mph 2 mph 75% 0.00 in 654 W/m2
12:45 42 °F 35 °F 30.37 in North 2 mph 2 mph 76% 0.00 in 635 W/m2
12:50 43.1 °F 35.7 °F 30.37 in North 2 mph 2 mph 75% 0.00 in 633 W/m2
12:55 42.7 °F 35.3 °F 30.37 in NE 1 mph 2 mph 75% 0.00 in 636 W/m2
13:00 42.7 °F 35.3 °F 30.37 in NE 2 mph 3 mph 75% 0.00 in 663 W/m2
13:05 43.1 °F 35.4 °F 30.36 in NNE 2 mph 3 mph 74% 0.00 in 693 W/m2
13:10 43.3 °F 35.6 °F 30.36 in NE 2 mph 3 mph 74% 0.00 in 707 W/m2
13:15 43.5 °F 35.8 °F 30.36 in NNE 2 mph 3 mph 74% 0.00 in 647 W/m2
13:20 43.3 °F 35.6 °F 30.36 in NNE 2 mph 2 mph 74% 0.00 in 599 W/m2
13:25 43.6 °F 35.9 °F 30.35 in NNE 2 mph 2 mph 74% 0.00 in 601 W/m2
13:30 43.4 °F 35.7 °F 30.35 in NNE 2 mph 2 mph 74% 0.00 in 571 W/m2
13:35 43.6 °F 35.9 °F 30.35 in North 2 mph 2 mph 74% 0.00 in 608 W/m2
13:40 43.4 °F 36 °F 30.35 in North 2 mph 2 mph 75% 0.00 in 582 W/m2
13:45 44.1 °F 36.3 °F 30.34 in North 1 mph 2 mph 74% 0.00 in 538 W/m2
13:50 43.9 °F 35.8 °F 30.34 in North 2 mph 2 mph 73% 0.00 in 540 W/m2
13:55 43.9 °F 36.1 °F 30.34 in North 2 mph 2 mph 74% 0.00 in 552 W/m2
14:00 43.9 °F 36.1 °F 30.33 in North 2 mph 2 mph 74% 0.00 in 570 W/m2
14:05 43.4 °F 36 °F 30.33 in NNW 2 mph 2 mph 75% 0.00 in 610 W/m2
14:10 44.2 °F 36.4 °F 30.33 in NNW 2 mph 2 mph 74% 0.00 in 598 W/m2
14:15 44.4 °F 36.6 °F 30.32 in NE 2 mph 4 mph 74% 0.00 in 599 W/m2
14:20 44.6 °F 36.5 °F 30.32 in North 2 mph 2 mph 73% 0.00 in 592 W/m2
14:25 44.4 °F 36.3 °F 30.32 in NNE 2 mph 2 mph 73% 0.00 in 596 W/m2
14:30 44.6 °F 36.5 °F 30.31 in NNE 2 mph 2 mph 73% 0.00 in 615 W/m2
14:35 45.3 °F 37.2 °F 30.31 in NNE 2 mph 2 mph 73% 0.00 in 640 W/m2
14:40 46.2 °F 37.7 °F 30.31 in NNE 2 mph 2 mph 72% 0.00 in 598 W/m2
14:45 45.6 °F 36.7 °F 30.30 in NE 2 mph 2 mph 71% 0.00 in 480 W/m2
14:50 45.9 °F 37 °F 30.30 in NE 2 mph 4 mph 71% 0.00 in 397 W/m2
14:55 45.7 °F 37.2 °F 30.30 in NE 2 mph 4 mph 72% 0.00 in 338 W/m2
15:00 46.5 °F 37.6 °F 30.30 in NE 1 mph 1 mph 71% 0.00 in 443 W/m2
15:05 47.1 °F 37.4 °F 30.30 in NE 1 mph 1 mph 69% 0.00 in 441 W/m2
15:10 47.2 °F 37.5 °F 30.30 in ESE 1 mph 1 mph 69% 0.00 in 473 W/m2
15:15 47.8 °F 37.7 °F 30.30 in ESE 1 mph 1 mph 68% 0.00 in 512 W/m2
15:20 46.2 °F 36.6 °F 30.29 in SE 1 mph 1 mph 69% 0.00 in 506 W/m2
15:25 44.9 °F 36.4 °F 30.29 in SE 1 mph 1 mph 72% 0.00 in 431 W/m2
15:30 43.5 °F 35.8 °F 30.29 in SE 1 mph 1 mph 74% 0.00 in 424 W/m2
15:35 44.3 °F 36.5 °F 30.29 in SSE 1 mph 3 mph 74% 0.00 in 397 W/m2
15:40 44.6 °F 36.5 °F 30.28 in SSE 2 mph 2 mph 73% 0.00 in 420 W/m2
15:45 45.2 °F 36.7 °F 30.28 in SE 2 mph 2 mph 72% 0.00 in 418 W/m2
15:50 46 °F 37.5 °F 30.28 in SE 3 mph 3 mph 72% 0.00 in 415 W/m2
15:55 44.7 °F 36.2 °F 30.28 in SE 3 mph 3 mph 72% 0.00 in 401 W/m2
16:00 43.1 °F 35.4 °F 30.27 in SSE 2 mph 2 mph 74% 0.00 in 394 W/m2
16:05 42 °F 35 °F 30.27 in SSE 2 mph 2 mph 76% 0.00 in 271 W/m2
16:10 42 °F 35.3 °F 30.27 in SSE 2 mph 2 mph 77% 0.00 in 243 W/m2
16:15 42.8 °F 36.1 °F 30.27 in SE 2 mph 3 mph 77% 0.00 in 234 W/m2
16:20 43.4 °F 36.3 °F 30.26 in SE 3 mph 3 mph 76% 0.00 in 272 W/m2
16:25 43.4 °F 36 °F 30.26 in SE 3 mph 4 mph 75% 0.00 in 295 W/m2
16:30 43.9 °F 37.2 °F 30.26 in SE 3 mph 4 mph 77% 0.00 in 388 W/m2
16:35 44.9 °F 38.1 °F 30.26 in ESE 3 mph 5 mph 77% 0.00 in 399 W/m2
16:40 45.6 °F 38.1 °F 30.25 in SE 4 mph 4 mph 75% 0.00 in 343 W/m2
16:45 45.2 °F 38.1 °F 30.25 in SSE 4 mph 4 mph 76% 0.00 in 316 W/m2
16:50 44.8 °F 38 °F 30.25 in ESE 4 mph 4 mph 77% 0.00 in 297 W/m2
16:55 44.1 °F 37.3 °F 30.25 in SE 5 mph 5 mph 77% 0.00 in 267 W/m2
17:00 43.8 °F 37.1 °F 30.25 in SE 4 mph 4 mph 77% 0.00 in 251 W/m2
17:05 43.2 °F 37.1 °F 30.25 in SE 4 mph 4 mph 79% 0.00 in 232 W/m2
17:10 42.8 °F 36.7 °F 30.24 in SE 4 mph 4 mph 79% 0.00 in 220 W/m2
17:15 43.5 °F 37.4 °F 30.24 in SE 5 mph 5 mph 79% 0.00 in 204 W/m2
17:20 42.6 °F 36.5 °F 30.24 in SE 5 mph 5 mph 79% 0.00 in 183 W/m2
17:25 42.3 °F 36.6 °F 30.24 in SE 5 mph 5 mph 80% 0.00 in 160 W/m2
17:30 42.4 °F 37 °F 30.24 in SE 5 mph 6 mph 81% 0.00 in 151 W/m2
17:35 41.9 °F 36.2 °F 30.24 in SSE 5 mph 6 mph 80% 0.00 in 123 W/m2
17:40 41.2 °F 35.8 °F 30.24 in SE 5 mph 5 mph 81% 0.00 in 104 W/m2
17:45 41.1 °F 36 °F 30.24 in SE 5 mph 5 mph 82% 0.00 in 74 W/m2
17:50 41 °F 35.9 °F 30.24 in SE 5 mph 5 mph 82% 0.00 in 47 W/m2
17:55 40.8 °F 35.7 °F 30.24 in SE 5 mph 7 mph 82% 0.00 in 44 W/m2
18:00 40.5 °F 35.7 °F 30.24 in SE 5 mph 5 mph 83% 0.00 in 39 W/m2
18:05 40 °F 35.3 °F 30.24 in SE 5 mph 5 mph 83% 0.00 in 21 W/m2
18:10 40.1 °F 35.7 °F 30.24 in SE 5 mph 7 mph 84% 0.00 in 14 W/m2
18:15 40.3 °F 35.5 °F 30.24 in SE 5 mph 7 mph 83% 0.00 in 11 W/m2
18:20 39.9 °F 35.2 °F 30.24 in SSE 6 mph 6 mph 83% 0.00 in 7 W/m2
18:25 40 °F 35.3 °F 30.24 in SE 6 mph 6 mph 83% 0.00 in 5 W/m2
18:30 39.7 °F 35 °F 30.24 in SE 6 mph 6 mph 83% 0.00 in 0 W/m2
18:35 39.7 °F 35.3 °F 30.24 in SSE 6 mph 6 mph 84% 0.00 in 0 W/m2
18:40 39.5 °F 35.1 °F 30.24 in SE 6 mph 6 mph 84% 0.00 in 0 W/m2
18:45 39.2 °F 34.8 °F 30.23 in SE 6 mph 6 mph 84% 0.00 in 0 W/m2
18:50 39 °F 34.6 °F 30.24 in SE 5 mph 5 mph 84% 0.00 in 0 W/m2
18:55 39 °F 34.6 °F 30.24 in SE 5 mph 7 mph 84% 0.00 in 0 W/m2
19:00 38.9 °F 34.5 °F 30.24 in SE 6 mph 6 mph 84% 0.00 in 0 W/m2
19:05 38.7 °F 34.3 °F 30.23 in ESE 6 mph 7 mph 84% 0.00 in 0 W/m2
19:10 38.8 °F 34.7 °F 30.23 in SE 6 mph 7 mph 85% 0.00 in 0 W/m2
19:15 38.6 °F 34.2 °F 30.23 in SE 7 mph 7 mph 84% 0.00 in 0 W/m2
19:20 38.8 °F 34.7 °F 30.23 in SE 8 mph 8 mph 85% 0.00 in 0 W/m2
19:25 38.8 °F 34.4 °F 30.23 in SE 8 mph 8 mph 84% 0.00 in 0 W/m2
19:30 38.8 °F 34.1 °F 30.23 in SE 7 mph 9 mph 83% 0.00 in 0 W/m2
19:35 38.1 °F 33.7 °F 30.22 in SE 7 mph 9 mph 84% 0.00 in 0 W/m2
19:40 37.8 °F 33.7 °F 30.22 in SE 6 mph 7 mph 85% 0.00 in 0 W/m2
19:45 37.7 °F 33.6 °F 30.22 in SE 6 mph 7 mph 85% 0.00 in 0 W/m2
19:50 37.6 °F 33.5 °F 30.22 in SE 7 mph 7 mph 85% 0.00 in 0 W/m2
19:55 37.7 °F 33.6 °F 30.22 in ESE 7 mph 7 mph 85% 0.00 in 0 W/m2
20:00 37.5 °F 33.7 °F 30.22 in SSE 7 mph 8 mph 86% 0.00 in 0 W/m2
20:05 37.6 °F 33.5 °F 30.22 in SSE 7 mph 8 mph 85% 0.00 in 0 W/m2
20:10 37.6 °F 33.5 °F 30.22 in SE 7 mph 7 mph 85% 0.00 in 0 W/m2
20:15 37.2 °F 33.1 °F 30.23 in SE 5 mph 7 mph 85% 0.00 in 0 W/m2
20:20 36.9 °F 33.1 °F 30.23 in SE 4 mph 4 mph 86% 0.00 in 0 W/m2
20:25 36.8 °F 33 °F 30.23 in SE 4 mph 5 mph 86% 0.00 in 0 W/m2
20:30 36.5 °F 32.7 °F 30.22 in SE 5 mph 7 mph 86% 0.00 in 0 W/m2
20:35 36.4 °F 32.9 °F 30.22 in SSE 5 mph 7 mph 87% 0.00 in 0 W/m2
20:40 36.4 °F 32.9 °F 30.22 in SE 6 mph 6 mph 87% 0.00 in 0 W/m2
20:45 36.4 °F 32.9 °F 30.22 in SE 6 mph 6 mph 87% 0.00 in 0 W/m2
20:50 36.6 °F 33.1 °F 30.22 in SE 6 mph 7 mph 87% 0.00 in 0 W/m2
20:55 36.4 °F 32.9 °F 30.21 in SSE 6 mph 7 mph 87% 0.00 in 0 W/m2
21:00 36.3 °F 32.8 °F 30.22 in SSE 4 mph 4 mph 87% 0.00 in 0 W/m2
21:05 36.1 °F 32.6 °F 30.21 in SSE 3 mph 4 mph 87% 0.00 in 0 W/m2
21:10 36.2 °F 32.7 °F 30.21 in SE 3 mph 3 mph 87% 0.00 in 0 W/m2
21:15 36.4 °F 32.9 °F 30.21 in SSE 3 mph 4 mph 87% 0.00 in 0 W/m2
21:20 36.7 °F 33.2 °F 30.21 in SSE 4 mph 4 mph 87% 0.00 in 0 W/m2
21:25 36.8 °F 33.3 °F 30.21 in SSE 4 mph 5 mph 87% 0.00 in 0 W/m2
21:30 37.1 °F 33.6 °F 30.21 in NNW 4 mph 4 mph 87% 0.00 in 0 W/m2
21:35 37.8 °F 34 °F 30.21 in NE 4 mph 4 mph 86% 0.00 in 0 W/m2
21:40 38.6 °F 34.5 °F 30.20 in ENE 4 mph 5 mph 85% 0.00 in 0 W/m2
21:45 39.4 °F 34.7 °F 30.20 in WSW 4 mph 5 mph 83% 0.00 in 0 W/m2
21:50 39.4 °F 34.7 °F 30.20 in ESE 5 mph 6 mph 83% 0.00 in 0 W/m2
21:55 39.3 °F 34.6 °F 30.20 in SSE 5 mph 6 mph 83% 0.00 in 0 W/m2
22:00 39.3 °F 34.6 °F 30.20 in East 4 mph 4 mph 83% 0.00 in 0 W/m2
22:05 39.2 °F 34.5 °F 30.20 in NNW 4 mph 4 mph 83% 0.00 in 0 W/m2
22:10 39.2 °F 34.5 °F 30.21 in West 4 mph 4 mph 83% 0.00 in 0 W/m2
22:15 38.8 °F 34.1 °F 30.21 in South 3 mph 4 mph 83% 0.00 in 0 W/m2
22:20 39 °F 34.3 °F 30.21 in West 3 mph 4 mph 83% 0.00 in 0 W/m2
22:25 38.7 °F 34 °F 30.20 in NW 3 mph 4 mph 83% 0.00 in 0 W/m2
22:30 38.5 °F 33.8 °F 30.21 in NNW 3 mph 3 mph 83% 0.00 in 0 W/m2
22:35 38.3 °F 33.9 °F 30.21 in NW 3 mph 3 mph 84% 0.00 in 0 W/m2
22:40 38.2 °F 33.8 °F 30.21 in NE 3 mph 3 mph 84% 0.00 in 0 W/m2
22:45 38.2 °F 33.8 °F 30.20 in NW 3 mph 3 mph 84% 0.00 in 0 W/m2
22:50 38.1 °F 33.7 °F 30.20 in NNW 3 mph 3 mph 84% 0.00 in 0 W/m2
22:55 38.1 °F 34 °F 30.20 in West 3 mph 3 mph 85% 0.00 in 0 W/m2
23:00 38.3 °F 33.9 °F 30.20 in NW 3 mph 4 mph 84% 0.00 in 0 W/m2
23:05 38.4 °F 34 °F 30.20 in NW 4 mph 4 mph 84% 0.00 in 0 W/m2
23:10 38.4 °F 34 °F 30.19 in NE 4 mph 4 mph 84% 0.00 in 0 W/m2
23:15 38.2 °F 33.8 °F 30.20 in North 4 mph 4 mph 84% 0.00 in 0 W/m2
23:20 38.1 °F 33.7 °F 30.19 in NE 3 mph 4 mph 84% 0.00 in 0 W/m2
23:25 38 °F 33.6 °F 30.19 in NNW 4 mph 4 mph 84% 0.00 in 0 W/m2
23:30 38 °F 33.6 °F 30.18 in West 4 mph 6 mph 84% 0.00 in 0 W/m2
23:35 38 °F 33.6 °F 30.18 in NW 4 mph 6 mph 84% 0.00 in 0 W/m2
23:40 37.9 °F 33.5 °F 30.18 in NW 4 mph 5 mph 84% 0.00 in 0 W/m2
23:45 37.9 °F 33.5 °F 30.18 in NW 4 mph 5 mph 84% 0.00 in 0 W/m2
23:50 38 °F 33.6 °F 30.18 in North 4 mph 4 mph 84% 0.00 in 0 W/m2
23:55 38.1 °F 33.7 °F 30.18 in WNW 4 mph 4 mph 84% 0.00 in 0 W/m2
Sand Point, Michigan, USA
Compliments of Weather Underground - 2 mb